St Pete Beach, Florida
Current Conditions -  °F | °C
As of 6:53 AM on Sunday 21 Dec 2014 (Local Time) from KSPG Reporting Station
Broken Clouds Broken Clouds  
Wind Chill: 18°   Ceiling: 8500
Heat Index: 18°   Visibility: 10mi
Dew Point: 16°   Wind: 6mph
Humidity: 87%   Direction: 170°S
Pressure: 30.05"   Gusts: NA
Location:  27.7426°N, 82.7481°W
Report Text: KSPG 211153Z 17005KT 10SM BKN085 18/16 A3005 RMK AO2 SLP175 T01830161 10189 20178 53003
Loading
Personal Weather Stations






























Interactive Weather Map New forecast layout! Learn more

10-Day Weather Forecast

Advertisements
Track Severe Weather on mobile